createdAt,value
2022-09-23T00:01:12.039Z,100448.97
2022-09-23T00:03:47.552Z,100483.00
2022-09-23T00:06:22.601Z,100432.63
2022-09-23T00:08:50.340Z,100423.88
2022-09-23T00:11:20.422Z,100470.69
2022-09-23T00:13:50.007Z,100474.13
2022-09-23T00:16:20.784Z,100449.56
2022-09-23T00:18:49.548Z,100443.50
2022-09-23T00:21:16.990Z,100425.72
2022-09-23T00:23:44.273Z,100426.84
2022-09-23T00:26:13.462Z,100466.16
2022-09-23T00:28:40.884Z,100436.38
2022-09-23T00:31:28.134Z,100457.69
2022-09-23T00:34:00.007Z,100463.56
2022-09-23T00:36:28.551Z,100451.78
2022-09-23T00:38:55.569Z,100490.44
2022-09-23T00:41:22.679Z,100494.50
2022-09-23T00:43:53.211Z,100483.69
2022-09-23T00:46:28.943Z,100480.38
2022-09-23T00:49:05.585Z,100483.94
2022-09-23T00:51:37.193Z,100473.84
2022-09-23T00:54:06.481Z,100453.03
2022-09-23T00:56:35.986Z,100481.09
2022-09-23T00:59:03.451Z,100413.19
2022-09-23T01:01:30.552Z,100478.97
2022-09-23T01:03:57.738Z,100412.38
2022-09-23T01:06:25.612Z,100479.53
2022-09-23T01:08:52.924Z,100454.91
2022-09-23T01:11:45.478Z,100472.06
2022-09-23T01:14:38.416Z,100483.13
2022-09-23T01:17:05.356Z,100480.38
2022-09-23T01:19:50.685Z,100476.69
2022-09-23T01:22:32.677Z,100477.66
2022-09-23T01:25:24.443Z,100463.69
2022-09-23T01:28:18.514Z,100477.09
2022-09-23T01:31:01.592Z,100477.22
2022-09-23T01:33:37.390Z,100461.78
2022-09-23T01:36:11.172Z,100479.25
2022-09-23T01:38:41.049Z,100475.06
2022-09-23T01:41:25.710Z,100470.13
2022-09-23T01:44:04.206Z,100469.38
2022-09-23T01:46:42.869Z,100425.59
2022-09-23T01:49:19.568Z,100453.63
2022-09-23T01:52:07.896Z,100425.81
2022-09-23T01:54:50.916Z,100427.97
2022-09-23T01:57:49.881Z,100426.63
2022-09-23T02:00:18.586Z,100420.94
2022-09-23T02:02:53.413Z,100407.25
2022-09-23T02:05:39.900Z,100448.97
2022-09-23T02:08:17.829Z,100426.63
2022-09-23T02:10:49.580Z,100395.31
2022-09-23T02:13:40.261Z,100419.34
2022-09-23T02:16:16.525Z,100421.44
2022-09-23T02:19:04.425Z,100402.28
2022-09-23T02:21:40.885Z,100420.22
2022-09-23T02:24:30.257Z,100441.69
2022-09-23T02:27:07.109Z,100402.44
2022-09-23T02:29:45.934Z,100436.38
2022-09-23T02:32:38.980Z,100437.91
2022-09-23T02:35:09.277Z,100416.25
2022-09-23T02:37:53.492Z,100382.34
2022-09-23T02:40:23.736Z,100380.72
2022-09-23T02:43:15.346Z,100420.44
2022-09-23T02:45:42.341Z,100411.81
2022-09-23T02:48:18.888Z,100401.31
2022-09-23T02:50:47.821Z,100392.66
2022-09-23T02:53:18.651Z,100369.97
2022-09-23T02:55:46.013Z,100385.78
2022-09-23T02:58:14.331Z,100356.09
2022-09-23T03:01:06.426Z,100410.50
2022-09-23T03:04:05.220Z,100390.53
2022-09-23T03:07:00.864Z,100398.91
2022-09-23T03:09:52.603Z,100427.03
2022-09-23T03:12:25.376Z,100431.41
2022-09-23T03:15:02.203Z,100402.34
2022-09-23T03:17:47.936Z,100414.41
2022-09-23T03:20:46.930Z,100427.69
2022-09-23T03:23:15.665Z,100408.66
2022-09-23T03:25:47.458Z,100433.84
2022-09-23T03:28:17.842Z,100422.97
2022-09-23T03:30:45.384Z,100398.47
2022-09-23T03:33:16.824Z,100387.97
2022-09-23T03:36:16.259Z,100427.94
2022-09-23T03:38:48.533Z,100360.97
2022-09-23T03:41:20.853Z,100422.03
2022-09-23T03:43:48.002Z,100406.19
2022-09-23T03:46:16.969Z,100397.53
2022-09-23T03:48:45.178Z,100436.44
2022-09-23T03:51:22.749Z,100372.56
2022-09-23T03:53:52.964Z,100399.06
2022-09-23T03:56:19.926Z,100444.50
2022-09-23T03:58:46.715Z,100436.69
2022-09-23T04:01:15.021Z,100382.53
2022-09-23T04:03:42.151Z,100360.53
2022-09-23T04:06:09.394Z,100412.91
2022-09-23T04:08:37.393Z,100352.72
2022-09-23T04:11:05.036Z,100403.81
2022-09-23T04:13:32.141Z,100440.22
2022-09-23T04:15:59.285Z,100426.28
2022-09-23T04:18:26.130Z,100424.75
2022-09-23T04:20:57.838Z,100429.59
2022-09-23T04:23:26.160Z,100429.13
2022-09-23T04:25:53.601Z,100439.06
2022-09-23T04:28:21.174Z,100420.13
2022-09-23T04:30:49.458Z,100427.72
2022-09-23T04:33:17.053Z,100429.34
2022-09-23T04:35:43.973Z,100448.66
2022-09-23T04:38:17.742Z,100443.56
2022-09-23T04:40:45.682Z,100424.16
2022-09-23T04:43:13.700Z,100437.44
2022-09-23T04:45:40.588Z,100429.84
2022-09-23T04:48:09.697Z,100426.28
2022-09-23T04:50:37.721Z,100442.13
2022-09-23T04:53:05.670Z,100432.19
2022-09-23T04:55:32.927Z,100395.75
2022-09-23T04:57:59.724Z,100454.31
2022-09-23T05:00:27.423Z,100444.75
2022-09-23T05:02:54.446Z,100427.47
2022-09-23T05:05:23.754Z,100432.91
2022-09-23T05:07:51.831Z,100422.03
2022-09-23T05:12:45.518Z,100436.59
2022-09-23T05:15:13.319Z,100427.22
2022-09-23T05:17:40.094Z,100461.97
2022-09-23T05:20:07.702Z,100385.59
2022-09-23T05:22:45.549Z,100469.72
2022-09-23T05:25:12.345Z,100448.91
2022-09-23T05:27:39.288Z,100446.19
2022-09-23T05:30:06.932Z,100441.56
2022-09-23T05:32:33.920Z,100457.41
2022-09-23T05:35:00.796Z,100417.09
2022-09-23T05:37:27.566Z,100438.16
2022-09-23T05:39:54.291Z,100448.41
2022-09-23T05:42:21.481Z,100442.13
2022-09-23T05:44:48.339Z,100377.06
2022-09-23T05:47:15.638Z,100405.94
2022-09-23T05:49:59.067Z,100455.19
2022-09-23T05:52:27.175Z,100448.53
2022-09-23T05:54:54.093Z,100402.63
2022-09-23T05:57:21.662Z,100441.31
2022-09-23T05:59:48.509Z,100414.09
2022-09-23T06:02:15.622Z,100426.13
2022-09-23T06:04:43.177Z,100437.97
2022-09-23T06:07:10.665Z,100404.75
2022-09-23T06:09:37.705Z,100423.44
2022-09-23T06:12:05.195Z,100470.88
2022-09-23T06:14:31.947Z,100448.31
2022-09-23T06:16:59.216Z,100410.44
2022-09-23T06:19:26.034Z,100463.66
2022-09-23T06:21:53.004Z,100397.56
2022-09-23T06:24:23.774Z,100457.00
2022-09-23T06:26:52.738Z,100454.81
2022-09-23T06:29:19.570Z,100473.34
2022-09-23T06:31:46.493Z,100447.00
2022-09-23T06:34:14.718Z,100388.56
2022-09-23T06:36:46.449Z,100446.88
2022-09-23T06:39:16.789Z,100448.19
2022-09-23T06:41:45.546Z,100405.00
2022-09-23T06:44:13.697Z,100433.66
2022-09-23T06:46:41.197Z,100457.88
2022-09-23T06:49:08.017Z,100477.06
2022-09-23T06:51:34.834Z,100464.41
2022-09-23T06:54:01.843Z,100437.69
2022-09-23T06:56:30.156Z,100486.44
2022-09-23T06:58:59.381Z,100473.19
2022-09-23T07:01:26.739Z,100499.69
2022-09-23T07:03:54.352Z,100508.69
2022-09-23T07:06:21.224Z,100509.41
2022-09-23T07:08:48.602Z,100519.53
2022-09-23T07:11:16.351Z,100526.91
2022-09-23T07:13:43.342Z,100538.38
2022-09-23T07:16:12.267Z,100539.31
2022-09-23T07:18:39.744Z,100474.38
2022-09-23T07:21:09.181Z,100513.38
2022-09-23T07:23:37.955Z,100513.63
2022-09-23T07:26:05.217Z,100531.84
2022-09-23T07:28:32.423Z,100544.97
2022-09-23T07:31:13.904Z,100475.84
2022-09-23T07:33:44.351Z,100548.84
2022-09-23T07:36:14.388Z,100547.31
2022-09-23T07:38:45.277Z,100510.72
2022-09-23T07:41:14.987Z,100545.03
2022-09-23T07:43:41.763Z,100512.47
2022-09-23T07:46:12.400Z,100519.41
2022-09-23T07:48:41.018Z,100551.56
2022-09-23T07:51:23.690Z,100547.47
2022-09-23T07:53:52.447Z,100552.66
2022-09-23T07:56:21.623Z,100553.09
2022-09-23T07:59:08.903Z,100534.06
2022-09-23T08:01:39.237Z,100523.50
2022-09-23T08:04:26.114Z,100561.50
2022-09-23T08:06:55.900Z,100538.66
2022-09-23T08:09:23.877Z,100563.81
2022-09-23T08:11:51.197Z,100533.75
2022-09-23T08:14:18.731Z,100555.81
2022-09-23T08:16:47.223Z,100540.94
2022-09-23T08:19:16.329Z,100568.88
2022-09-23T08:21:44.303Z,100580.66
2022-09-23T08:24:17.120Z,100570.81
2022-09-23T08:26:44.938Z,100573.41
2022-09-23T08:29:16.773Z,100576.91
2022-09-23T08:31:43.983Z,100549.13
2022-09-23T08:34:10.994Z,100555.91
2022-09-23T08:36:38.348Z,100569.81
2022-09-23T08:39:06.835Z,100561.66
2022-09-23T08:41:49.416Z,100502.63
2022-09-23T08:44:26.835Z,100585.59
2022-09-23T08:47:04.091Z,100589.78
2022-09-23T08:49:39.642Z,100600.41
2022-09-23T08:52:24.516Z,100430.03
2022-09-23T08:54:55.301Z,100606.34
2022-09-23T08:57:38.677Z,100604.47
2022-09-23T09:00:06.369Z,100507.00
2022-09-23T09:02:36.480Z,100600.78
2022-09-23T09:05:10.294Z,100573.44
2022-09-23T09:07:40.406Z,100581.00
2022-09-23T09:10:10.124Z,100594.91
2022-09-23T09:12:43.436Z,100456.00
2022-09-23T09:15:13.280Z,100596.78
2022-09-23T09:17:48.625Z,100507.97
2022-09-23T09:20:16.933Z,100615.47
2022-09-23T09:22:52.969Z,100610.91
2022-09-23T09:25:30.727Z,100609.59
2022-09-23T09:28:00.794Z,100565.13
2022-09-23T09:30:28.529Z,100562.69
2022-09-23T09:33:02.269Z,100607.63
2022-09-23T09:35:40.990Z,100603.81
2022-09-23T09:38:08.504Z,100613.00
2022-09-23T09:40:35.452Z,100611.22
2022-09-23T09:43:04.793Z,100613.19
2022-09-23T09:45:58.027Z,100609.78
2022-09-23T09:48:40.200Z,100587.63
2022-09-23T09:51:21.907Z,100605.84
2022-09-23T09:53:52.152Z,100546.00
2022-09-23T09:56:27.572Z,100506.59
2022-09-23T09:58:59.100Z,100585.81
2022-09-23T10:01:32.036Z,100501.69
2022-09-23T10:04:02.012Z,100597.34
2022-09-23T10:06:32.761Z,100535.22
2022-09-23T10:09:05.767Z,100589.16
2022-09-23T10:11:33.438Z,100606.75
2022-09-23T10:14:03.040Z,100604.88
2022-09-23T10:16:32.047Z,100592.63
2022-09-23T10:19:11.577Z,100595.19
2022-09-23T10:21:39.507Z,100550.38
2022-09-23T10:24:08.072Z,100474.41
2022-09-23T10:26:44.314Z,100382.31
2022-09-23T10:29:48.446Z,100588.06
2022-09-23T10:32:26.321Z,100567.66
2022-09-23T10:35:14.602Z,100585.56
2022-09-23T10:37:44.361Z,100595.22
2022-09-23T10:40:49.548Z,100576.19
2022-09-23T10:44:01.221Z,100580.66
2022-09-23T10:46:40.161Z,100568.59
2022-09-23T10:49:29.376Z,100577.59
2022-09-23T10:51:56.076Z,100595.16
2022-09-23T10:54:51.686Z,100564.75
2022-09-23T10:57:43.233Z,100572.56
2022-09-23T11:00:38.040Z,100580.75
2022-09-23T11:03:36.045Z,100582.78
2022-09-23T11:06:20.854Z,100598.28
2022-09-23T11:09:06.026Z,100587.56
2022-09-23T11:11:44.661Z,100602.28
2022-09-23T11:14:19.468Z,100574.56
2022-09-23T11:17:14.872Z,100580.56
2022-09-23T11:20:14.902Z,100584.41
2022-09-23T11:23:09.668Z,100587.19
2022-09-23T11:26:04.271Z,100568.75
2022-09-23T11:28:55.820Z,100575.84
2022-09-23T11:31:31.680Z,100579.53
2022-09-23T11:34:25.718Z,100574.59
2022-09-23T11:37:02.536Z,100564.94
2022-09-23T11:39:42.253Z,100548.06
2022-09-23T11:42:18.095Z,100547.59
2022-09-23T11:44:58.870Z,100538.38
2022-09-23T11:47:39.787Z,100475.53
2022-09-23T11:50:40.609Z,100560.44
2022-09-23T11:53:35.211Z,100561.69
2022-09-23T11:56:35.340Z,100570.75
2022-09-23T11:59:32.418Z,100567.72
2022-09-23T12:02:20.346Z,100558.47
2022-09-23T12:04:58.696Z,100476.13
2022-09-23T12:07:48.778Z,100483.16
2022-09-23T12:10:16.339Z,100552.91
2022-09-23T12:12:51.674Z,100570.56
2022-09-23T12:15:31.236Z,100555.88
2022-09-23T12:18:04.161Z,100553.84
2022-09-23T12:21:04.328Z,100543.09
2022-09-23T12:24:09.654Z,100548.81
2022-09-23T12:26:39.240Z,100566.53
2022-09-23T12:29:07.257Z,100557.91
2022-09-23T12:31:41.129Z,100545.72
2022-09-23T12:34:34.531Z,100549.75
2022-09-23T12:37:04.335Z,100538.91
2022-09-23T12:39:35.536Z,100531.59
2022-09-23T12:42:05.681Z,100544.13
2022-09-23T12:44:45.168Z,100546.66
2022-09-23T12:47:14.776Z,100549.81
2022-09-23T12:49:43.801Z,100510.25
2022-09-23T12:52:16.610Z,100547.53
2022-09-23T12:54:56.690Z,100548.63
2022-09-23T12:57:35.914Z,100537.84
2022-09-23T13:00:13.001Z,100534.66
2022-09-23T13:03:07.771Z,100529.63
2022-09-23T13:06:03.897Z,100506.72
2022-09-23T13:08:32.752Z,100525.22
2022-09-23T13:11:05.952Z,100504.00
2022-09-23T13:13:43.023Z,100498.81
2022-09-23T13:16:14.399Z,100494.03
2022-09-23T13:19:13.474Z,100495.81
2022-09-23T13:21:43.225Z,100513.13
2022-09-23T13:24:16.015Z,100510.94
2022-09-23T13:26:52.026Z,100515.09
2022-09-23T13:29:51.968Z,100351.28
2022-09-23T13:32:21.239Z,100262.75
2022-09-23T13:35:01.793Z,100500.91
2022-09-23T13:37:41.219Z,100509.22
2022-09-23T13:40:26.746Z,100480.03
2022-09-23T13:43:11.972Z,100505.91
2022-09-23T13:45:43.302Z,100447.41
2022-09-23T13:48:15.626Z,100377.03
2022-09-23T13:50:49.238Z,100251.19
2022-09-23T13:53:32.871Z,100492.97
2022-09-23T13:56:13.067Z,100498.19
2022-09-23T13:58:40.731Z,100468.16
2022-09-23T14:01:22.916Z,100461.19
2022-09-23T14:03:51.652Z,100502.72
2022-09-23T14:06:18.929Z,100511.66
2022-09-23T14:08:48.648Z,100485.81
2022-09-23T14:11:21.822Z,100457.72
2022-09-23T14:14:01.269Z,100372.13
2022-09-23T14:16:39.929Z,100440.78
2022-09-23T14:19:08.258Z,100439.50
2022-09-23T14:21:40.689Z,100484.38
2022-09-23T14:24:10.633Z,100476.94
2022-09-23T14:26:39.699Z,100397.47
2022-09-23T14:29:28.893Z,100422.22
2022-09-23T14:32:00.890Z,100375.34
2022-09-23T14:35:04.770Z,100461.72
2022-09-23T14:38:02.114Z,100408.16
2022-09-23T14:40:30.491Z,100438.19
2022-09-23T14:43:17.227Z,100451.78
2022-09-23T14:45:48.022Z,100372.25
2022-09-23T14:48:23.240Z,100445.13
2022-09-23T14:50:55.783Z,100439.28
2022-09-23T14:53:25.359Z,100455.19
2022-09-23T14:56:07.576Z,100451.47
2022-09-23T14:59:00.838Z,100440.31
2022-09-23T15:01:34.107Z,100440.72
2022-09-23T15:04:12.857Z,100441.53
2022-09-23T15:06:43.285Z,100440.59
2022-09-23T15:09:17.710Z,100430.06
2022-09-23T15:11:44.708Z,100411.78
2022-09-23T15:14:36.159Z,100435.69
2022-09-23T15:17:01.527Z,100414.28
2022-09-23T15:19:30.257Z,100431.19
2022-09-23T15:21:57.302Z,100391.44
2022-09-23T15:24:38.482Z,100429.25
2022-09-23T15:27:21.121Z,100421.91
2022-09-23T15:29:48.936Z,100443.59
2022-09-23T15:32:15.655Z,100409.81
2022-09-23T15:34:42.532Z,100443.84
2022-09-23T15:37:15.165Z,100382.22
2022-09-23T15:39:41.967Z,100379.91
2022-09-23T15:42:10.349Z,100340.03
2022-09-23T15:44:38.218Z,100413.84
2022-09-23T15:47:05.235Z,100388.50
2022-09-23T15:49:36.454Z,100415.38
2022-09-23T15:52:07.250Z,100402.13
2022-09-23T15:54:34.028Z,100388.16
2022-09-23T15:57:01.455Z,100407.03
2022-09-23T15:59:29.081Z,100389.75
2022-09-23T16:01:57.186Z,100385.66
2022-09-23T16:04:25.663Z,100390.25
2022-09-23T16:06:53.530Z,100420.75
2022-09-23T16:09:20.244Z,100378.38
2022-09-23T16:11:50.129Z,100388.31
2022-09-23T16:14:18.278Z,100362.69
2022-09-23T16:16:47.930Z,100330.16
2022-09-23T16:19:15.907Z,100369.34
2022-09-23T16:21:43.470Z,100341.16
2022-09-23T16:24:18.773Z,100371.59
2022-09-23T16:26:47.635Z,100396.84
2022-09-23T16:29:15.023Z,100357.66
2022-09-23T16:31:41.935Z,100358.06
2022-09-23T16:34:08.987Z,100277.00
2022-09-23T16:36:42.141Z,100331.81
2022-09-23T16:39:13.125Z,100339.41
2022-09-23T16:41:41.644Z,100300.69
2022-09-23T16:44:10.811Z,100337.91
2022-09-23T16:46:37.664Z,100374.16
2022-09-23T16:49:07.318Z,100402.78
2022-09-23T16:51:38.699Z,100334.56
2022-09-23T16:54:10.433Z,100342.03
2022-09-23T16:56:41.923Z,100377.91
2022-09-23T16:59:08.925Z,100332.91
2022-09-23T17:01:54.716Z,100345.72
2022-09-23T17:04:22.705Z,100393.84
2022-09-23T17:06:51.589Z,100391.47
2022-09-23T17:09:20.802Z,100383.22
2022-09-23T17:11:57.217Z,100342.50
2022-09-23T17:14:24.160Z,100411.22
2022-09-23T17:16:51.170Z,100361.91
2022-09-23T17:19:17.982Z,100352.03
2022-09-23T17:21:45.128Z,100337.19
2022-09-23T17:24:11.989Z,100338.09
2022-09-23T17:26:38.849Z,100427.00
2022-09-23T17:29:05.975Z,100417.84
2022-09-23T17:31:33.013Z,100403.69
2022-09-23T17:34:01.062Z,100397.97
2022-09-23T17:36:28.413Z,100401.69
2022-09-23T17:38:55.614Z,100419.00
2022-09-23T17:41:22.842Z,100374.94
2022-09-23T17:43:54.851Z,100355.25
2022-09-23T17:46:21.608Z,100392.31
2022-09-23T17:48:48.764Z,100407.94
2022-09-23T17:51:17.713Z,100427.69
2022-09-23T17:53:47.384Z,100408.25
2022-09-23T17:56:21.483Z,100429.22
2022-09-23T17:58:50.009Z,100377.22
2022-09-23T18:01:22.624Z,100428.13
2022-09-23T18:03:55.104Z,100405.88
2022-09-23T18:06:24.222Z,100388.59
2022-09-23T18:08:52.103Z,100409.56
2022-09-23T18:11:27.476Z,100412.88
2022-09-23T18:13:58.958Z,100425.59
2022-09-23T18:16:28.837Z,100405.03
2022-09-23T18:18:58.244Z,100418.16
2022-09-23T18:21:27.748Z,100399.81
2022-09-23T18:23:59.849Z,100371.88
2022-09-23T18:26:34.193Z,100389.34
2022-09-23T18:29:01.791Z,100400.38
2022-09-23T18:31:34.737Z,100423.47
2022-09-23T18:34:04.001Z,100424.78
2022-09-23T18:36:30.904Z,100357.41
2022-09-23T18:38:57.747Z,100374.66
2022-09-23T18:41:24.687Z,100433.34
2022-09-23T18:43:51.515Z,100399.50
2022-09-23T18:46:21.211Z,100338.00
2022-09-23T18:49:07.198Z,100396.03
2022-09-23T18:51:37.031Z,100439.28
2022-09-23T18:54:06.649Z,100396.56
2022-09-23T18:56:44.829Z,100408.50
2022-09-23T18:59:17.848Z,100398.66
2022-09-23T19:01:46.093Z,100382.03
2022-09-23T19:04:14.336Z,100410.22
2022-09-23T19:06:42.184Z,100404.44
2022-09-23T19:09:09.262Z,100429.75
2022-09-23T19:11:38.541Z,100364.09
2022-09-23T19:14:07.617Z,100427.94
2022-09-23T19:16:36.589Z,100421.50
2022-09-23T19:19:05.502Z,100446.53
2022-09-23T19:21:33.545Z,100446.59
2022-09-23T19:24:05.933Z,100413.13
2022-09-23T19:26:38.871Z,100451.72
2022-09-23T19:29:08.643Z,100463.72
2022-09-23T19:31:39.836Z,100461.50
2022-09-23T19:34:13.794Z,100390.72
2022-09-23T19:36:43.142Z,100384.66
2022-09-23T19:39:17.645Z,100461.63
2022-09-23T19:41:45.267Z,100466.13
2022-09-23T19:44:15.676Z,100248.81
2022-09-23T19:46:55.934Z,100215.22
2022-09-23T19:49:24.987Z,100230.16
2022-09-23T19:51:53.278Z,100266.59
2022-09-23T19:54:21.069Z,100288.78
2022-09-23T19:56:51.257Z,100414.28
2022-09-23T19:59:19.315Z,100412.50
2022-09-23T20:01:47.843Z,100471.66
2022-09-23T20:04:15.935Z,100402.50
2022-09-23T20:06:43.520Z,100409.19
2022-09-23T20:09:10.628Z,100378.09
2022-09-23T20:11:38.216Z,100489.78
2022-09-23T20:14:06.614Z,100395.69
2022-09-23T20:16:35.920Z,100483.69
2022-09-23T20:19:04.531Z,100470.47
2022-09-23T20:21:32.239Z,100493.72
2022-09-23T20:23:59.458Z,100407.16
2022-09-23T20:26:44.980Z,100499.50
2022-09-23T20:29:12.296Z,100405.44
2022-09-23T20:31:41.759Z,100422.66
2022-09-23T20:34:10.888Z,100469.97
2022-09-23T20:36:40.428Z,100488.44
2022-09-23T20:39:07.655Z,100433.84
2022-09-23T20:41:38.181Z,100388.84
2022-09-23T20:44:13.995Z,100519.69
2022-09-23T20:46:48.539Z,100438.38
2022-09-23T20:49:17.535Z,100269.31
2022-09-23T20:51:44.665Z,100488.88
2022-09-23T20:54:12.492Z,100372.59
2022-09-23T20:56:39.679Z,100471.31
2022-09-23T20:59:06.690Z,100354.03
2022-09-23T21:01:35.401Z,100492.66
2022-09-23T21:04:05.038Z,100443.91
2022-09-23T21:06:34.025Z,100413.22
2022-09-23T21:09:01.146Z,100415.69
2022-09-23T21:11:29.292Z,100440.75
2022-09-23T21:13:56.733Z,100420.06
2022-09-23T21:16:24.684Z,100502.50
2022-09-23T21:18:52.030Z,100465.53
2022-09-23T21:21:20.097Z,100465.38
2022-09-23T21:23:48.050Z,100472.63
2022-09-23T21:26:20.591Z,100494.69
2022-09-23T21:28:49.782Z,100462.25
2022-09-23T21:31:25.906Z,100467.41
2022-09-23T21:33:59.415Z,100500.94
2022-09-23T21:36:28.314Z,100386.38
2022-09-23T21:38:59.219Z,100419.78
2022-09-23T21:41:26.130Z,100419.00
2022-09-23T21:43:53.207Z,100375.88
2022-09-23T21:46:21.520Z,100236.78
2022-09-23T21:49:03.622Z,100365.59
2022-09-23T21:51:38.073Z,100516.50
2022-09-23T21:54:06.446Z,100482.94
2022-09-23T21:56:36.473Z,100508.03
2022-09-23T21:59:04.196Z,100494.50
2022-09-23T22:01:36.647Z,100512.34
2022-09-23T22:04:08.750Z,100514.53
2022-09-23T22:06:38.788Z,100514.66
2022-09-23T22:09:13.158Z,100511.38
2022-09-23T22:11:59.333Z,100437.53
2022-09-23T22:17:10.577Z,100522.25
2022-09-23T22:19:42.995Z,100523.88
2022-09-23T22:22:14.727Z,100481.88
2022-09-23T22:24:45.619Z,100514.34
2022-09-23T22:27:15.398Z,100487.94
2022-09-23T22:30:00.543Z,100516.97
2022-09-23T22:32:43.808Z,100481.91
2022-09-23T22:35:19.138Z,100505.09
2022-09-23T22:37:46.362Z,100493.47
2022-09-23T22:40:15.110Z,100502.59
2022-09-23T22:42:42.525Z,100484.47
2022-09-23T22:45:11.326Z,100497.50
2022-09-23T22:47:39.923Z,100508.88
2022-09-23T22:50:09.135Z,100482.59
2022-09-23T22:52:36.660Z,100509.94
2022-09-23T22:55:04.555Z,100517.38
2022-09-23T22:57:31.431Z,100496.66
2022-09-23T22:59:58.279Z,100494.97
2022-09-23T23:02:25.129Z,100496.97
2022-09-23T23:04:51.976Z,100473.78
2022-09-23T23:07:21.367Z,100482.16
2022-09-23T23:09:50.426Z,100478.56
2022-09-23T23:12:19.116Z,100499.06
2022-09-23T23:14:48.466Z,100481.63
2022-09-23T23:17:15.521Z,100441.69
2022-09-23T23:19:42.443Z,100476.38
2022-09-23T23:22:09.314Z,100493.03
2022-09-23T23:24:36.020Z,100468.31
2022-09-23T23:27:02.749Z,100488.13
2022-09-23T23:29:29.564Z,100468.50
2022-09-23T23:31:56.322Z,100485.69
2022-09-23T23:34:23.236Z,100483.34
2022-09-23T23:36:56.794Z,100482.97
2022-09-23T23:39:27.015Z,100419.72
2022-09-23T23:41:55.460Z,100463.06
2022-09-23T23:44:24.021Z,100449.19
2022-09-23T23:46:51.527Z,100459.25
2022-09-23T23:49:18.357Z,100467.75
2022-09-23T23:51:45.825Z,100444.31
2022-09-23T23:54:12.868Z,100474.16
2022-09-23T23:56:39.652Z,100462.69
2022-09-23T23:59:06.736Z,100412.94
